createdAt,value
2023-04-21T00:00:07.602Z,43.93
2023-04-21T00:00:18.599Z,43.82
2023-04-21T00:00:29.601Z,43.82
2023-04-21T00:00:40.582Z,43.82
2023-04-21T00:00:51.580Z,43.82
2023-04-21T00:01:02.567Z,43.93
2023-04-21T00:01:13.566Z,43.93
2023-04-21T00:01:24.560Z,43.93
2023-04-21T00:01:35.642Z,43.93
2023-04-21T00:01:47.611Z,43.93
2023-04-21T00:01:59.605Z,43.93
2023-04-21T00:02:11.622Z,43.93
2023-04-21T00:02:23.642Z,43.93
2023-04-21T00:02:36.044Z,43.93
2023-04-21T00:02:45.690Z,43.93
2023-04-21T00:02:56.645Z,44.02
2023-04-21T00:03:07.792Z,44.02
2023-04-21T00:03:18.707Z,44.02
2023-04-21T00:03:29.788Z,44.02
2023-04-21T00:03:40.740Z,44.13
2023-04-21T00:03:51.748Z,44.13
2023-04-21T00:04:03.697Z,44.13
2023-04-21T00:04:14.688Z,44.13
2023-04-21T00:04:25.693Z,44.02
2023-04-21T00:04:36.766Z,44.02
2023-04-21T00:04:48.816Z,44.02
2023-04-21T00:04:59.662Z,44.02
2023-04-21T00:05:10.763Z,44.02
2023-04-21T00:05:22.811Z,43.93
2023-04-21T00:05:34.789Z,43.93
2023-04-21T00:05:46.613Z,43.93
2023-04-21T00:05:57.639Z,43.93
2023-04-21T00:06:08.625Z,43.93
2023-04-21T00:06:19.603Z,43.93
2023-04-21T00:06:30.588Z,44.02
2023-04-21T00:06:41.600Z,44.02
2023-04-21T00:06:52.596Z,44.02
2023-04-21T00:07:03.583Z,44.13
2023-04-21T00:07:14.579Z,44.13
2023-04-21T00:07:25.584Z,44.02
2023-04-21T00:07:36.572Z,44.02
2023-04-21T00:07:47.562Z,44.02
2023-04-21T00:07:58.651Z,43.93
2023-04-21T00:08:10.614Z,43.93
2023-04-21T00:08:21.624Z,43.93
2023-04-21T00:08:33.578Z,43.93
2023-04-21T00:08:44.561Z,44.02
2023-04-21T00:08:55.549Z,44.02
2023-04-21T00:09:06.618Z,43.93
2023-04-21T00:09:19.087Z,43.93
2023-04-21T00:09:29.613Z,44.02
2023-04-21T00:09:40.601Z,44.13
2023-04-21T00:09:51.589Z,44.23
2023-04-21T00:10:02.587Z,44.23
2023-04-21T00:10:13.575Z,44.13
2023-04-21T00:10:24.572Z,44.02
2023-04-21T00:10:35.594Z,44.02
2023-04-21T00:10:46.589Z,44.02
2023-04-21T00:10:57.630Z,44.02
2023-04-21T00:11:08.618Z,44.02
2023-04-21T00:11:19.609Z,44.02
2023-04-21T00:11:30.611Z,44.13
2023-04-21T00:11:41.612Z,44.13
2023-04-21T00:11:52.611Z,44.13
2023-04-21T00:12:03.599Z,44.13
2023-04-21T00:12:14.603Z,44.02
2023-04-21T00:12:25.581Z,44.02
2023-04-21T00:12:36.573Z,44.02
2023-04-21T00:12:47.564Z,44.02
2023-04-21T00:12:58.675Z,44.02
2023-04-21T00:13:10.637Z,44.02
2023-04-21T00:13:22.600Z,44.02
2023-04-21T00:13:33.593Z,44.02
2023-04-21T00:13:44.576Z,44.02
2023-04-21T00:13:55.556Z,44.02
2023-04-21T00:14:06.556Z,44.02
2023-04-21T00:14:17.639Z,44.02
2023-04-21T00:14:29.580Z,44.02
2023-04-21T00:14:40.591Z,44.02
2023-04-21T00:14:51.586Z,44.02
2023-04-21T00:15:02.584Z,44.13
2023-04-21T00:15:13.606Z,44.23
2023-04-21T00:15:24.602Z,44.23
2023-04-21T00:15:35.619Z,44.13
2023-04-21T00:15:46.658Z,44.13
2023-04-21T00:15:57.649Z,44.13
2023-04-21T00:16:08.618Z,44.13
2023-04-21T00:16:20.634Z,44.13
2023-04-21T00:16:31.768Z,44.23
2023-04-21T00:16:42.594Z,44.23
2023-04-21T00:16:53.583Z,44.13
2023-04-21T00:17:04.600Z,44.13
2023-04-21T00:17:15.587Z,44.13
2023-04-21T00:17:26.590Z,44.13
2023-04-21T00:17:37.690Z,44.13
2023-04-21T00:17:49.691Z,44.13
2023-04-21T00:18:01.600Z,44.13
2023-04-21T00:18:12.552Z,44.13
2023-04-21T00:18:23.553Z,44.13
2023-04-21T00:18:34.648Z,44.13
2023-04-21T00:18:46.614Z,44.13
2023-04-21T00:18:57.609Z,44.13
2023-04-21T00:19:08.663Z,44.13
2023-04-21T00:19:19.741Z,44.13
2023-04-21T00:19:31.596Z,44.13
2023-04-21T00:19:42.590Z,44.13
2023-04-21T00:19:53.610Z,44.02
2023-04-21T00:20:04.612Z,44.02
2023-04-21T00:20:15.623Z,44.02
2023-04-21T00:20:27.585Z,44.02
2023-04-21T00:20:38.577Z,44.13
2023-04-21T00:20:49.578Z,44.13
2023-04-21T00:21:00.567Z,44.13
2023-04-21T00:21:11.648Z,44.13
2023-04-21T00:21:23.609Z,44.23
2023-04-21T00:21:34.599Z,44.23
2023-04-21T00:21:45.602Z,44.33
2023-04-21T00:21:56.601Z,44.33
2023-04-21T00:22:08.585Z,44.23
2023-04-21T00:22:19.573Z,44.23
2023-04-21T00:22:30.568Z,44.23
2023-04-21T00:22:41.573Z,44.13
2023-04-21T00:22:52.569Z,44.13
2023-04-21T00:23:03.568Z,44.13
2023-04-21T00:23:14.568Z,44.13
2023-04-21T00:23:25.581Z,44.13
2023-04-21T00:23:36.585Z,44.23
2023-04-21T00:23:47.576Z,44.23
2023-04-21T00:23:58.585Z,44.23
2023-04-21T00:24:09.572Z,44.23
2023-04-21T00:24:20.559Z,44.33
2023-04-21T00:24:31.570Z,44.23
2023-04-21T00:24:42.564Z,44.23
2023-04-21T00:24:53.639Z,44.13
2023-04-21T00:25:05.601Z,44.13
2023-04-21T00:25:16.609Z,44.13
2023-04-21T00:25:28.598Z,44.23
2023-04-21T00:25:39.602Z,44.23
2023-04-21T00:25:50.599Z,44.23
2023-04-21T00:26:01.598Z,44.23
2023-04-21T00:26:12.588Z,44.33
2023-04-21T00:26:23.564Z,44.33
2023-04-21T00:26:34.600Z,44.43
2023-04-21T00:26:46.579Z,44.43
2023-04-21T00:26:57.597Z,44.53
2023-04-21T00:27:08.585Z,44.53
2023-04-21T00:27:19.588Z,44.53
2023-04-21T00:27:30.591Z,44.53
2023-04-21T00:27:41.589Z,44.53
2023-04-21T00:27:53.606Z,44.53
2023-04-21T00:28:04.598Z,44.43
2023-04-21T00:28:15.595Z,44.33
2023-04-21T00:28:26.607Z,44.33
2023-04-21T00:28:37.608Z,44.23
2023-04-21T00:28:48.604Z,44.23
2023-04-21T00:28:59.602Z,44.23
2023-04-21T00:29:11.571Z,44.23
2023-04-21T00:29:22.576Z,44.23
2023-04-21T00:29:33.569Z,44.23
2023-04-21T00:29:44.561Z,44.33
2023-04-21T00:29:55.585Z,44.33
2023-04-21T00:30:06.581Z,44.43
2023-04-21T00:30:18.591Z,44.43
2023-04-21T00:30:29.596Z,44.43
2023-04-21T00:30:40.607Z,44.53
2023-04-21T00:30:51.612Z,44.43
2023-04-21T00:31:02.646Z,44.33
2023-04-21T00:31:14.668Z,44.23
2023-04-21T00:31:26.711Z,44.33
2023-04-21T00:31:38.634Z,44.33
2023-04-21T00:31:50.770Z,44.33
2023-04-21T00:32:01.591Z,44.33
2023-04-21T00:32:12.584Z,44.33
2023-04-21T00:32:23.640Z,44.23
2023-04-21T00:32:34.618Z,44.33
2023-04-21T00:32:46.637Z,44.23
2023-04-21T00:32:57.606Z,44.33
2023-04-21T00:33:08.640Z,44.33
2023-04-21T00:33:20.592Z,44.33
2023-04-21T00:33:31.589Z,44.23
2023-04-21T00:33:42.577Z,44.33
2023-04-21T00:33:53.576Z,44.33
2023-04-21T00:34:04.589Z,44.33
2023-04-21T00:34:15.573Z,44.33
2023-04-21T00:34:26.567Z,44.33
2023-04-21T00:34:37.568Z,44.23
2023-04-21T00:34:48.553Z,44.23
2023-04-21T00:34:59.657Z,44.23
2023-04-21T00:35:11.623Z,44.23
2023-04-21T00:35:23.585Z,44.23
2023-04-21T00:35:34.585Z,44.23
2023-04-21T00:35:45.581Z,44.23
2023-04-21T00:35:56.566Z,44.23
2023-04-21T00:36:07.559Z,44.23
2023-04-21T00:36:18.549Z,44.33
2023-04-21T00:36:29.669Z,44.23
2023-04-21T00:36:41.548Z,44.23
2023-04-21T00:36:52.658Z,44.23
2023-04-21T00:37:04.646Z,44.13
2023-04-21T00:37:16.619Z,44.33
2023-04-21T00:37:28.576Z,44.33
2023-04-21T00:37:39.566Z,44.23
2023-04-21T00:37:50.562Z,44.23
2023-04-21T00:38:01.561Z,44.23
2023-04-21T00:38:12.593Z,44.23
2023-04-21T00:38:23.598Z,44.23
2023-04-21T00:38:34.591Z,44.23
2023-04-21T00:38:45.595Z,44.33
2023-04-21T00:38:56.596Z,44.33
2023-04-21T00:39:07.582Z,44.23
2023-04-21T00:39:18.935Z,44.23
2023-04-21T00:39:30.598Z,44.23
2023-04-21T00:39:41.610Z,44.23
2023-04-21T00:39:52.582Z,44.23
2023-04-21T00:40:03.594Z,44.33
2023-04-21T00:40:14.611Z,44.33
2023-04-21T00:40:25.613Z,44.33
2023-04-21T00:40:36.608Z,44.33
2023-04-21T00:40:48.579Z,44.43
2023-04-21T00:40:59.567Z,44.43
2023-04-21T00:41:10.569Z,44.43
2023-04-21T00:41:21.650Z,44.43
2023-04-21T00:41:33.602Z,44.43
2023-04-21T00:41:44.611Z,44.43
2023-04-21T00:41:55.597Z,44.43
2023-04-21T00:42:06.590Z,44.53
2023-04-21T00:42:17.586Z,44.53
2023-04-21T00:42:28.591Z,44.43
2023-04-21T00:42:39.585Z,44.43
2023-04-21T00:42:50.577Z,44.33
2023-04-21T00:43:01.580Z,44.33
2023-04-21T00:43:12.594Z,44.43
2023-04-21T00:43:23.592Z,44.43
2023-04-21T00:43:34.597Z,44.33
2023-04-21T00:43:45.606Z,44.33
2023-04-21T00:43:56.615Z,44.33
2023-04-21T00:44:08.579Z,44.33
2023-04-21T00:44:19.603Z,44.33
2023-04-21T00:44:30.594Z,44.33
2023-04-21T00:44:41.585Z,44.33
2023-04-21T00:44:52.588Z,44.33
2023-04-21T00:45:03.585Z,44.33
2023-04-21T00:45:14.566Z,44.33
2023-04-21T00:45:25.583Z,44.33
2023-04-21T00:45:36.577Z,44.33
2023-04-21T00:45:47.569Z,44.33
2023-04-21T00:45:58.561Z,44.33
2023-04-21T00:46:09.560Z,44.33
2023-04-21T00:46:20.564Z,44.33
2023-04-21T00:46:32.603Z,44.33
2023-04-21T00:46:44.639Z,44.33
2023-04-21T00:46:55.600Z,44.33
2023-04-21T00:47:06.677Z,44.33
2023-04-21T00:47:17.588Z,44.33
2023-04-21T00:47:28.590Z,44.33
2023-04-21T00:47:39.679Z,44.43
2023-04-21T00:47:50.662Z,44.43
2023-04-21T00:48:02.638Z,44.43
2023-04-21T00:48:14.611Z,44.33
2023-04-21T00:48:25.602Z,44.33
2023-04-21T00:48:36.595Z,44.33
2023-04-21T00:48:47.609Z,44.33
2023-04-21T00:48:58.593Z,44.43
2023-04-21T00:49:09.604Z,44.43
2023-04-21T00:49:20.766Z,44.43
2023-04-21T00:49:32.599Z,44.43
2023-04-21T00:49:43.606Z,44.33
2023-04-21T00:49:54.604Z,44.33
2023-04-21T00:50:06.604Z,44.33
2023-04-21T00:50:17.596Z,44.33
2023-04-21T00:50:28.600Z,44.23
2023-04-21T00:50:40.593Z,44.33
2023-04-21T00:50:51.610Z,44.33
2023-04-21T00:51:02.609Z,44.53
2023-04-21T00:51:13.610Z,44.53
2023-04-21T00:51:24.605Z,44.63
2023-04-21T00:51:35.597Z,44.53
2023-04-21T00:51:46.600Z,44.53
2023-04-21T00:51:57.589Z,44.53
2023-04-21T00:52:08.589Z,44.43
2023-04-21T00:52:19.583Z,44.33
2023-04-21T00:52:30.584Z,44.23
2023-04-21T00:52:41.572Z,44.13
2023-04-21T00:52:52.561Z,44.13
2023-04-21T00:53:03.551Z,44.13
2023-04-21T00:53:14.640Z,44.13
2023-04-21T00:53:26.607Z,44.13
2023-04-21T00:53:38.595Z,44.13
2023-04-21T00:53:49.576Z,44.23
2023-04-21T00:54:00.575Z,44.23
2023-04-21T00:54:11.604Z,44.23
2023-04-21T00:54:22.607Z,44.23
2023-04-21T00:54:33.599Z,44.23
2023-04-21T00:54:44.595Z,44.13
2023-04-21T00:54:55.582Z,44.13
2023-04-21T00:55:06.566Z,44.13
2023-04-21T00:55:17.557Z,44.13
2023-04-21T00:55:28.557Z,44.13
2023-04-21T00:55:39.657Z,44.13
2023-04-21T00:55:51.628Z,44.13
2023-04-21T00:56:03.586Z,44.13
2023-04-21T00:56:14.587Z,44.13
2023-04-21T00:56:25.580Z,44.13
2023-04-21T00:56:36.620Z,44.13
2023-04-21T00:56:47.562Z,44.13
2023-04-21T00:56:58.597Z,44.13
2023-04-21T00:57:09.623Z,44.13
2023-04-21T00:57:21.597Z,44.13
2023-04-21T00:57:32.594Z,44.13
2023-04-21T00:57:43.587Z,44.13
2023-04-21T00:57:54.588Z,44.13
2023-04-21T00:58:05.570Z,44.13
2023-04-21T00:58:16.570Z,44.13
2023-04-21T00:58:27.563Z,44.13
2023-04-21T00:58:38.556Z,44.13
2023-04-21T00:58:49.653Z,44.33
2023-04-21T00:59:01.649Z,44.43
2023-04-21T00:59:13.624Z,44.33
2023-04-21T00:59:25.585Z,44.23
2023-04-21T00:59:36.591Z,44.23
2023-04-21T00:59:47.580Z,44.23
2023-04-21T00:59:58.568Z,44.23
2023-04-21T01:00:09.567Z,44.23
2023-04-21T01:00:20.557Z,44.23
2023-04-21T01:00:31.672Z,44.23
2023-04-21T01:00:43.672Z,44.13
2023-04-21T01:00:55.644Z,44.02
2023-04-21T01:01:07.700Z,44.02
2023-04-21T01:01:18.636Z,44.02
2023-04-21T01:01:30.691Z,44.02
2023-04-21T01:01:42.619Z,44.02
2023-04-21T01:01:54.607Z,44.02
2023-04-21T01:02:06.670Z,44.02
2023-04-21T01:02:17.785Z,44.02
2023-04-21T01:02:28.777Z,44.13
2023-04-21T01:02:39.675Z,44.13
2023-04-21T01:02:51.683Z,44.13
2023-04-21T01:03:03.796Z,44.13
2023-04-21T01:03:15.706Z,44.13
2023-04-21T01:03:26.840Z,44.23
2023-04-21T01:03:37.846Z,44.23
2023-04-21T01:03:49.669Z,44.23
2023-04-21T01:04:00.649Z,44.13
2023-04-21T01:04:11.644Z,44.13
2023-04-21T01:04:22.661Z,44.02
2023-04-21T01:04:33.570Z,44.13
2023-04-21T01:04:44.563Z,44.13
2023-04-21T01:04:55.592Z,44.23
2023-04-21T01:05:06.576Z,44.23
2023-04-21T01:05:17.580Z,44.23
2023-04-21T01:05:28.587Z,44.13
2023-04-21T01:05:39.583Z,44.13
2023-04-21T01:05:50.614Z,44.02
2023-04-21T01:06:01.614Z,44.02
2023-04-21T01:06:12.605Z,43.93
2023-04-21T01:06:23.607Z,43.93
2023-04-21T01:06:34.589Z,44.02
2023-04-21T01:06:45.586Z,44.02
2023-04-21T01:06:56.571Z,44.02
2023-04-21T01:07:08.091Z,44.02
2023-04-21T01:07:19.592Z,44.02
2023-04-21T01:07:30.594Z,44.02
2023-04-21T01:07:41.584Z,44.02
2023-04-21T01:07:52.718Z,44.02
2023-04-21T01:08:03.645Z,44.02
2023-04-21T01:08:15.605Z,44.02
2023-04-21T01:08:26.596Z,44.02
2023-04-21T01:08:37.620Z,44.02
2023-04-21T01:08:49.582Z,44.02
2023-04-21T01:09:00.579Z,43.93
2023-04-21T01:09:11.600Z,43.93
2023-04-21T01:09:22.628Z,44.02
2023-04-21T01:09:34.618Z,44.02
2023-04-21T01:09:46.593Z,44.02
2023-04-21T01:09:57.632Z,44.02
2023-04-21T01:10:09.616Z,44.02
2023-04-21T01:10:21.590Z,44.02
2023-04-21T01:10:32.598Z,44.02
2023-04-21T01:10:43.619Z,44.13
2023-04-21T01:10:54.593Z,44.13
2023-04-21T01:11:05.597Z,44.13
2023-04-21T01:11:16.596Z,44.13
2023-04-21T01:11:27.589Z,44.02
2023-04-21T01:11:38.597Z,44.02
2023-04-21T01:11:49.585Z,44.02
2023-04-21T01:12:00.597Z,44.02
2023-04-21T01:12:12.566Z,44.02
2023-04-21T01:12:24.559Z,44.02
2023-04-21T01:12:35.577Z,44.02
2023-04-21T01:12:46.558Z,44.02
2023-04-21T01:12:57.532Z,44.02
2023-04-21T01:13:08.637Z,44.02
2023-04-21T01:13:20.586Z,44.02
2023-04-21T01:13:31.569Z,44.02
2023-04-21T01:13:42.565Z,44.02
2023-04-21T01:13:53.544Z,44.02
2023-04-21T01:14:04.618Z,44.02
2023-04-21T01:14:16.560Z,44.02
2023-04-21T01:14:27.547Z,44.02
2023-04-21T01:14:38.577Z,44.02
2023-04-21T01:14:49.592Z,44.02
2023-04-21T01:15:00.573Z,44.02
2023-04-21T01:15:11.543Z,44.13
2023-04-21T01:15:22.527Z,44.13
2023-04-21T01:15:33.613Z,44.13
2023-04-21T01:15:45.561Z,44.13
2023-04-21T01:15:56.539Z,44.13
2023-04-21T01:16:07.546Z,44.13
2023-04-21T01:16:18.589Z,44.02
2023-04-21T01:16:29.660Z,44.02
2023-04-21T01:16:40.591Z,44.02
2023-04-21T01:16:51.624Z,44.13
2023-04-21T01:17:02.593Z,44.13
2023-04-21T01:17:13.629Z,44.13
2023-04-21T01:17:25.557Z,44.02
2023-04-21T01:17:36.573Z,43.93
2023-04-21T01:17:48.593Z,43.93
2023-04-21T01:17:59.626Z,44.02
2023-04-21T01:18:11.608Z,44.02
2023-04-21T01:18:22.561Z,44.02
2023-04-21T01:18:33.544Z,44.13
2023-04-21T01:18:44.534Z,44.13
2023-04-21T01:18:55.613Z,44.13
2023-04-21T01:19:07.550Z,44.13
2023-04-21T01:19:18.868Z,44.13
2023-04-21T01:19:30.550Z,44.13
2023-04-21T01:19:41.523Z,44.02
2023-04-21T01:19:52.610Z,44.02
2023-04-21T01:20:03.577Z,44.02
2023-04-21T01:20:14.567Z,44.02
2023-04-21T01:20:25.557Z,44.02
2023-04-21T01:20:36.544Z,44.02
2023-04-21T01:20:47.534Z,44.02
2023-04-21T01:20:58.523Z,44.02
2023-04-21T01:21:09.602Z,44.02
2023-04-21T01:21:21.559Z,44.02
2023-04-21T01:21:32.549Z,44.02
2023-04-21T01:21:43.618Z,44.13
2023-04-21T01:21:55.564Z,44.13
2023-04-21T01:22:06.538Z,44.13
2023-04-21T01:22:17.580Z,44.13
2023-04-21T01:22:28.552Z,44.13
2023-04-21T01:22:39.522Z,44.13
2023-04-21T01:22:50.601Z,44.13
2023-04-21T01:23:01.571Z,44.13
2023-04-21T01:23:12.555Z,44.13
2023-04-21T01:23:23.530Z,44.13
2023-04-21T01:23:34.605Z,44.02
2023-04-21T01:23:46.549Z,44.02
2023-04-21T01:23:57.625Z,44.02
2023-04-21T01:24:09.575Z,44.02
2023-04-21T01:24:20.556Z,43.93
2023-04-21T01:24:31.555Z,44.02
2023-04-21T01:24:42.534Z,44.02
2023-04-21T01:24:53.556Z,44.02
2023-04-21T01:25:04.544Z,44.02
2023-04-21T01:25:15.537Z,44.02
2023-04-21T01:25:26.612Z,44.02
2023-04-21T01:25:38.567Z,44.02
2023-04-21T01:25:49.548Z,43.93
2023-04-21T01:26:00.621Z,43.93
2023-04-21T01:26:12.567Z,43.93
2023-04-21T01:26:23.563Z,43.93
2023-04-21T01:26:34.566Z,44.02
2023-04-21T01:26:45.542Z,44.02
2023-04-21T01:26:56.620Z,44.02
2023-04-21T01:27:08.587Z,44.02
2023-04-21T01:27:19.555Z,44.02
2023-04-21T01:27:30.548Z,44.02
2023-04-21T01:27:41.633Z,44.02
2023-04-21T01:27:53.578Z,44.02
2023-04-21T01:28:04.552Z,44.02
2023-04-21T01:28:15.531Z,44.02
2023-04-21T01:28:26.606Z,44.02
2023-04-21T01:28:37.594Z,44.02
2023-04-21T01:28:49.559Z,44.02
2023-04-21T01:29:00.537Z,44.02
2023-04-21T01:29:11.618Z,44.02
2023-04-21T01:29:23.559Z,44.02
2023-04-21T01:29:35.565Z,44.02
2023-04-21T01:29:46.584Z,43.93
2023-04-21T01:29:57.563Z,43.93
2023-04-21T01:30:08.554Z,43.93
2023-04-21T01:30:19.554Z,43.93
2023-04-21T01:30:30.546Z,43.93
2023-04-21T01:30:41.627Z,43.93
2023-04-21T01:30:53.581Z,43.93
2023-04-21T01:31:04.561Z,43.93
2023-04-21T01:31:15.554Z,43.93
2023-04-21T01:31:26.544Z,43.93
2023-04-21T01:31:37.580Z,43.93
2023-04-21T01:31:49.606Z,43.93
2023-04-21T01:32:01.636Z,43.93
2023-04-21T01:32:13.631Z,43.93
2023-04-21T01:32:24.638Z,43.93
2023-04-21T01:32:35.602Z,43.82
2023-04-21T01:32:46.588Z,43.93
2023-04-21T01:32:58.694Z,43.93
2023-04-21T01:33:09.576Z,43.93
2023-04-21T01:33:20.606Z,43.93
2023-04-21T01:33:32.553Z,43.93
2023-04-21T01:33:43.541Z,44.02
2023-04-21T01:33:54.625Z,43.93
2023-04-21T01:34:06.581Z,43.93
2023-04-21T01:34:17.598Z,44.02
2023-04-21T01:34:28.582Z,44.02
2023-04-21T01:34:39.561Z,43.93
2023-04-21T01:34:50.545Z,43.93
2023-04-21T01:35:01.524Z,43.93
2023-04-21T01:35:12.586Z,43.93
2023-04-21T01:35:23.578Z,43.93
2023-04-21T01:35:34.586Z,43.93
2023-04-21T01:35:45.569Z,43.93
2023-04-21T01:35:56.545Z,43.93
2023-04-21T01:36:07.624Z,43.93
2023-04-21T01:36:19.572Z,43.93
2023-04-21T01:36:30.552Z,43.93
2023-04-21T01:36:41.519Z,43.93
2023-04-21T01:36:52.619Z,44.02
2023-04-21T01:37:04.565Z,44.02
2023-04-21T01:37:15.559Z,43.93
2023-04-21T01:37:26.538Z,43.93
2023-04-21T01:37:37.597Z,43.93
2023-04-21T01:37:49.563Z,43.93
2023-04-21T01:38:00.568Z,43.93
2023-04-21T01:38:11.540Z,43.93
2023-04-21T01:38:22.619Z,43.93
2023-04-21T01:38:34.569Z,43.93
2023-04-21T01:38:45.555Z,43.93
2023-04-21T01:38:56.549Z,43.93
2023-04-21T01:39:07.676Z,43.93
2023-04-21T01:39:19.768Z,43.93
2023-04-21T01:39:30.535Z,43.93
2023-04-21T01:39:41.617Z,43.93
2023-04-21T01:39:53.562Z,43.93
2023-04-21T01:40:04.535Z,43.93
2023-04-21T01:40:15.621Z,43.93
2023-04-21T01:40:27.589Z,43.93
2023-04-21T01:40:38.581Z,43.93
2023-04-21T01:40:49.568Z,43.82
2023-04-21T01:41:00.560Z,43.82
2023-04-21T01:41:11.545Z,43.82
2023-04-21T01:41:22.624Z,43.82
2023-04-21T01:41:34.575Z,43.82
2023-04-21T01:41:45.543Z,43.82
2023-04-21T01:41:56.530Z,43.82
2023-04-21T01:42:08.610Z,43.82
2023-04-21T01:42:19.584Z,43.82
2023-04-21T01:42:30.561Z,43.82
2023-04-21T01:42:41.524Z,43.93
2023-04-21T01:42:52.529Z,43.93
2023-04-21T01:43:03.617Z,43.93
2023-04-21T01:43:15.555Z,43.93
2023-04-21T01:43:26.536Z,43.93
2023-04-21T01:43:37.604Z,43.93
2023-04-21T01:43:48.600Z,43.93
2023-04-21T01:44:00.599Z,43.93
2023-04-21T01:44:11.567Z,43.93
2023-04-21T01:44:22.570Z,43.82
2023-04-21T01:44:33.559Z,43.82
2023-04-21T01:44:44.537Z,43.82
2023-04-21T01:44:55.533Z,43.82
2023-04-21T01:45:06.617Z,43.82
2023-04-21T01:45:18.557Z,43.82
2023-04-21T01:45:29.529Z,43.82
2023-04-21T01:45:40.674Z,43.82
2023-04-21T01:45:51.612Z,43.82
2023-04-21T01:46:02.624Z,43.82
2023-04-21T01:46:13.621Z,43.82
2023-04-21T01:46:24.595Z,43.82
2023-04-21T01:46:35.789Z,43.93
2023-04-21T01:46:47.588Z,43.93
2023-04-21T01:46:58.580Z,43.93
2023-04-21T01:47:09.560Z,43.93
2023-04-21T01:47:20.553Z,43.93
2023-04-21T01:47:31.565Z,43.93
2023-04-21T01:47:43.616Z,43.82
2023-04-21T01:47:55.595Z,43.82
2023-04-21T01:48:07.568Z,43.82
2023-04-21T01:48:18.605Z,43.82
2023-04-21T01:48:30.565Z,43.82
2023-04-21T01:48:41.549Z,43.82
2023-04-21T01:48:52.545Z,43.82
2023-04-21T01:49:03.535Z,43.82
2023-04-21T01:49:14.619Z,43.82
2023-04-21T01:49:26.567Z,43.82
2023-04-21T01:49:37.550Z,43.82
2023-04-21T01:49:48.608Z,43.82
2023-04-21T01:50:00.573Z,43.82
2023-04-21T01:50:11.554Z,43.82
2023-04-21T01:50:22.544Z,43.82
2023-04-21T01:50:33.530Z,43.82
2023-04-21T01:50:44.612Z,43.82
2023-04-21T01:50:55.600Z,43.82
2023-04-21T01:51:07.591Z,43.82
2023-04-21T01:51:18.586Z,43.82
2023-04-21T01:51:29.572Z,43.82
2023-04-21T01:51:40.554Z,43.73
2023-04-21T01:51:51.550Z,43.82
2023-04-21T01:52:02.537Z,43.82
2023-04-21T01:52:13.621Z,43.82
2023-04-21T01:52:25.556Z,43.82
2023-04-21T01:52:36.541Z,43.82
2023-04-21T01:52:47.612Z,43.93
2023-04-21T01:52:59.575Z,43.93
2023-04-21T01:53:10.547Z,43.93
2023-04-21T01:53:21.542Z,43.93
2023-04-21T01:53:32.621Z,43.93
2023-04-21T01:53:44.556Z,43.93
2023-04-21T01:53:55.527Z,43.93
2023-04-21T01:54:06.611Z,43.82
2023-04-21T01:54:18.586Z,43.73
2023-04-21T01:54:29.573Z,43.73
2023-04-21T01:54:40.568Z,43.73
2023-04-21T01:54:51.566Z,43.82
2023-04-21T01:55:02.566Z,43.82
2023-04-21T01:55:13.555Z,43.82
2023-04-21T01:55:24.576Z,43.73
2023-04-21T01:55:35.622Z,43.73
2023-04-21T01:55:47.586Z,43.73
2023-04-21T01:55:58.581Z,43.73
2023-04-21T01:56:09.583Z,43.73
2023-04-21T01:56:20.583Z,43.73
2023-04-21T01:56:31.623Z,43.82
2023-04-21T01:56:43.683Z,43.82
2023-04-21T01:56:54.668Z,43.82
2023-04-21T01:57:05.649Z,43.82
2023-04-21T01:57:17.686Z,43.82
2023-04-21T01:57:29.604Z,43.82
2023-04-21T01:57:40.591Z,43.82
2023-04-21T01:57:51.587Z,43.73
2023-04-21T01:58:02.587Z,43.73
2023-04-21T01:58:13.579Z,43.73
2023-04-21T01:58:24.567Z,43.73
2023-04-21T01:58:35.591Z,43.73
2023-04-21T01:58:47.584Z,43.82
2023-04-21T01:58:58.588Z,43.82
2023-04-21T01:59:09.589Z,43.82
2023-04-21T01:59:20.659Z,43.82
2023-04-21T01:59:32.582Z,43.82
2023-04-21T01:59:43.579Z,43.93
2023-04-21T01:59:54.573Z,43.93
2023-04-21T02:00:05.640Z,43.93
2023-04-21T02:00:17.596Z,43.93
2023-04-21T02:00:29.605Z,43.82
2023-04-21T02:00:40.613Z,43.82
2023-04-21T02:00:51.601Z,43.82
2023-04-21T02:01:02.624Z,43.73
2023-04-21T02:01:14.610Z,43.82
2023-04-21T02:01:26.695Z,43.82
2023-04-21T02:01:38.654Z,43.82
2023-04-21T02:01:49.675Z,43.82
2023-04-21T02:02:00.621Z,43.82
2023-04-21T02:02:11.631Z,43.82
2023-04-21T02:02:23.637Z,43.82
2023-04-21T02:02:34.662Z,43.73
2023-04-21T02:02:45.668Z,43.73
2023-04-21T02:02:56.738Z,43.73
2023-04-21T02:03:08.698Z,43.73
2023-04-21T02:03:20.677Z,43.82
2023-04-21T02:03:32.718Z,43.82
2023-04-21T02:03:43.769Z,43.73
2023-04-21T02:03:55.804Z,43.73
2023-04-21T02:04:07.710Z,43.73
2023-04-21T02:04:18.653Z,43.73
2023-04-21T02:04:29.678Z,43.73
2023-04-21T02:04:41.749Z,43.73
2023-04-21T02:04:53.588Z,43.73
2023-04-21T02:05:04.594Z,43.73
2023-04-21T02:05:15.588Z,43.73
2023-04-21T02:05:26.580Z,43.73
2023-04-21T02:05:37.576Z,43.73
2023-04-21T02:05:48.572Z,43.73
2023-04-21T02:05:59.562Z,43.73
2023-04-21T02:06:10.578Z,43.73
2023-04-21T02:06:21.558Z,43.73
2023-04-21T02:06:32.565Z,43.73
2023-04-21T02:06:43.556Z,43.62
2023-04-21T02:06:54.642Z,43.62
2023-04-21T02:07:06.602Z,43.73
2023-04-21T02:07:17.600Z,43.73
2023-04-21T02:07:28.588Z,43.73
2023-04-21T02:07:39.594Z,43.73
2023-04-21T02:07:50.597Z,43.62
2023-04-21T02:08:01.578Z,43.62
2023-04-21T02:08:12.610Z,43.62
2023-04-21T02:08:23.589Z,43.62
2023-04-21T02:08:34.583Z,43.62
2023-04-21T02:08:45.570Z,43.62
2023-04-21T02:08:56.556Z,43.62
2023-04-21T02:09:07.655Z,43.62
2023-04-21T02:09:19.987Z,43.62
2023-04-21T02:09:30.617Z,43.62
2023-04-21T02:09:41.597Z,43.62
2023-04-21T02:09:52.593Z,43.62
2023-04-21T02:10:03.612Z,43.62
2023-04-21T02:10:15.585Z,43.73
2023-04-21T02:10:26.578Z,43.62
2023-04-21T02:10:37.566Z,43.62
2023-04-21T02:10:48.587Z,43.62
2023-04-21T02:10:59.578Z,43.62
2023-04-21T02:11:10.557Z,43.62
2023-04-21T02:11:21.669Z,43.73
2023-04-21T02:11:33.638Z,43.73
2023-04-21T02:11:45.598Z,43.73
2023-04-21T02:11:56.587Z,43.62
2023-04-21T02:12:08.110Z,43.62
2023-04-21T02:12:18.583Z,43.73
2023-04-21T02:12:29.587Z,43.73
2023-04-21T02:12:40.603Z,43.82
2023-04-21T02:12:51.601Z,43.73
2023-04-21T02:13:02.593Z,43.73
2023-04-21T02:13:13.575Z,43.73
2023-04-21T02:13:24.580Z,43.73
2023-04-21T02:13:35.569Z,43.73
2023-04-21T02:13:46.590Z,43.73
2023-04-21T02:13:57.581Z,43.73
2023-04-21T02:14:08.568Z,43.73
2023-04-21T02:14:19.556Z,43.73
2023-04-21T02:14:30.560Z,43.73
2023-04-21T02:14:41.652Z,43.73
2023-04-21T02:14:53.605Z,43.62
2023-04-21T02:15:04.589Z,43.62
2023-04-21T02:15:15.587Z,43.52
2023-04-21T02:15:26.683Z,43.62
2023-04-21T02:15:38.633Z,43.62
2023-04-21T02:15:51.614Z,43.62
2023-04-21T02:16:12.771Z,43.62
2023-04-21T02:16:14.268Z,43.73
2023-04-21T02:16:22.665Z,43.73
2023-04-21T02:16:34.580Z,43.73
2023-04-21T02:16:45.626Z,43.73
2023-04-21T02:16:56.553Z,43.73
2023-04-21T02:17:07.682Z,43.73
2023-04-21T02:17:19.633Z,43.73
2023-04-21T02:17:31.674Z,43.73
2023-04-21T02:17:42.670Z,43.62
2023-04-21T02:17:53.630Z,43.62
2023-04-21T02:18:04.628Z,43.73
2023-04-21T02:18:15.668Z,43.62
2023-04-21T02:18:27.634Z,43.62
2023-04-21T02:18:39.593Z,43.73
2023-04-21T02:18:50.590Z,43.73
2023-04-21T02:19:01.574Z,43.62
2023-04-21T02:19:12.574Z,43.62
2023-04-21T02:19:23.570Z,43.62
2023-04-21T02:19:34.573Z,43.62
2023-04-21T02:19:45.559Z,43.62
2023-04-21T02:19:56.557Z,43.62
2023-04-21T02:20:07.644Z,43.73
2023-04-21T02:20:19.603Z,43.73
2023-04-21T02:20:30.592Z,43.73
2023-04-21T02:20:41.587Z,43.82
2023-04-21T02:20:52.581Z,43.82
2023-04-21T02:21:03.575Z,43.82
2023-04-21T02:21:14.575Z,43.82
2023-04-21T02:21:25.578Z,43.82
2023-04-21T02:21:36.582Z,43.82
2023-04-21T02:21:47.633Z,43.82
2023-04-21T02:21:58.560Z,43.73
2023-04-21T02:22:09.564Z,43.73
2023-04-21T02:22:20.578Z,43.73
2023-04-21T02:22:31.577Z,43.73
2023-04-21T02:22:42.581Z,43.82
2023-04-21T02:22:53.578Z,43.82
2023-04-21T02:23:04.565Z,43.82
2023-04-21T02:23:15.560Z,43.73
2023-04-21T02:23:26.546Z,43.73
2023-04-21T02:23:37.550Z,43.73
2023-04-21T02:23:48.633Z,43.73
2023-04-21T02:24:00.590Z,43.73
2023-04-21T02:24:11.587Z,43.73
2023-04-21T02:24:22.619Z,43.73